Airfield :







YOU CAN JOIN US ON...

 
LOGIN :

Register | Disclaimer

   EN    FR    IT 

 









Legend :    VFR   Marginal VFR   IFR   Intensive IFR   Very Intensive IFR
Visi :
Ceiling :
>= 8 km
>= 3000ft
5 to 8 km
1000 to 3000 ft
1500m to 5 km
500 to 1000 ft
800 to 1500m
200 to 500 ft
< 800m
< 200 ft
Symbols :   Thunderstorms  Fog  Heavy snow  Heavy precipitations  Wind > 20 kt






- Airport Elevation : 270 ft
- IATA code : YMX


CYMX - Montreal International Mirabel

CURRENT METAR :
  • 281500Z 22007KT 180V240 25SM FEW040 BKN220 BKN250 27/18 A3002 RMK CU1CC5CI1 SLP165 DENSITY ALT 1700FT

EXPIRED METARs :
  • 281400Z 22007KT 190V280 25SM BKN210 BKN250 26/18 A3003 RMK CC6CI1 SLP171 DENSITY ALT 1600FT
  • 281300Z 23009G16KT 200V260 30SM FEW065 FEW250 25/17 A3004 RMK SC1CI1 SC TR SLP173 DENSITY ALT 1400FT

TAF TAF CYMX
Valid from the 28 at 12:00 until the 29 at 12:00 UTC


281138Z 2812/2912 22005KT P6SM FEW060 SCT220
BECMG 2812/2814 22012KT
FM282000 22010G20KT P6SM OVC140
FM290200 21012KT 5SM -RA BR OVC012
PROB30 2902/2906 2SM TSRA BR BKN006 OVC012CB
FM290600 22012KT 11/2SM -RA -DZ BR OVC006
FM291100 23012KT 6SM -DZ BR OVC012 RMK NXT FCST BY 281800Z
CZUL FIR / North America



MET'MAP, your aeronautical weather chart ! - Copyright ORBIFLY December 2007 - Disclaimer

ORBIFLY MET'MAP TEAM :

Programming & Development : Alexandra Zaïnal
Concept & original design : Baudouin d'Aumeries
Assistance for programming : Marc-Olivier Méhu
Technical & hardware support : Manuel Goepfert

Contact : metmap@orbifly.com




SOURCES & CREDITS :

   NOAA